Time;durP1;ratioP1;P1;durP2;ratioP2;P2;SDS_P1;SDS_P2;PMS_P1;PMS_P2;Temp;Humidity;BMP_temperature;BMP_pressure;BME280_temperature;BME280_humidity;BME280_pressure;Samples;Min_cycle;Max_cycle;Signal;HPM_P1;HPM_P2
2021/06/12 00:00:44;;;;;;;;;;;16.80;99.90;;;;;;4890043;29;19928;-66
2021/06/12 00:03:13;;;;;;;;;;;16.70;99.90;;;;;;4878914;29;19928;-66
2021/06/12 00:05:41;;;;;;;;;;;16.60;99.90;;;;;;4890865;29;19928;-66
2021/06/12 00:08:08;;;;;;;;;;;16.60;99.90;;;;;;4886865;29;19983;-66
2021/06/12 00:10:39;;;;;;;;;;;16.50;99.90;;;;;;4894181;29;19935;-67
2021/06/12 00:13:07;;;;;;;;;;;16.50;99.90;;;;;;4891606;29;20007;-66
2021/06/12 00:15:35;;;;;;;;;;;16.40;99.90;;;;;;4891528;29;20391;-67
2021/06/12 00:18:04;;;;;;;;;;;16.40;99.90;;;;;;4889236;29;19928;-67
2021/06/12 00:20:35;;;;;;;;;;;16.40;99.90;;;;;;4892990;29;20370;-67
2021/06/12 00:23:03;;;;;;;;;;;16.30;99.90;;;;;;4889923;29;20341;-67
2021/06/12 00:25:31;;;;;;;;;;;16.30;99.90;;;;;;4889006;29;19983;-67
2021/06/12 00:28:02;;;;;;;;;;;16.20;99.90;;;;;;4888424;29;19958;-68
2021/06/12 00:30:30;;;;;;;;;;;16.20;99.90;;;;;;4887318;29;20296;-67
2021/06/12 00:32:58;;;;;;;;;;;16.20;99.90;;;;;;4889015;29;19982;-66
2021/06/12 00:35:26;;;;;;;;;;;16.20;99.90;;;;;;4889442;29;19989;-66
2021/06/12 00:37:54;;;;;;;;;;;16.20;99.90;;;;;;4889309;29;19931;-67
2021/06/12 00:40:48;;;;;;;;;;;16.10;99.90;;;;;;4886472;29;19955;-66
2021/06/12 00:43:18;;;;;;;;;;;16.10;99.90;;;;;;4889498;29;19955;-67
2021/06/12 00:45:47;;;;;;;;;;;16.10;99.90;;;;;;4897019;29;19935;-67
2021/06/12 00:48:14;;;;;;;;;;;16.10;99.90;;;;;;4890346;29;19955;-66
2021/06/12 00:50:42;;;;;;;;;;;16.10;99.90;;;;;;4891310;29;19946;-67
2021/06/12 00:53:10;;;;;;;;;;;16.00;99.90;;;;;;4893414;29;19928;-66
2021/06/12 00:55:38;;;;;;;;;;;16.00;99.90;;;;;;4893835;29;19927;-65
2021/06/12 00:58:08;;;;;;;;;;;15.90;99.90;;;;;;4896107;29;19927;-67
2021/06/12 01:00:39;;;;;;;;;;;15.90;99.90;;;;;;4872672;29;20308;-67
2021/06/12 01:03:08;;;;;;;;;;;15.90;99.90;;;;;;4876067;29;19956;-67
2021/06/12 01:05:35;;;;;;;;;;;15.80;99.90;;;;;;4889647;29;19936;-67
2021/06/12 01:08:04;;;;;;;;;;;15.80;99.90;;;;;;4891202;29;19935;-67
2021/06/12 01:10:31;;;;;;;;;;;15.80;99.90;;;;;;4894084;29;19983;-67
2021/06/12 01:13:06;;;;;;;;;;;15.70;99.90;;;;;;4892193;29;19959;-67
2021/06/12 01:15:37;;;;;;;;;;;15.70;99.90;;;;;;4891458;29;19927;-68
2021/06/12 01:18:07;;;;;;;;;;;15.70;99.90;;;;;;4888790;29;19932;-67
2021/06/12 01:20:58;;;;;;;;;;;15.70;99.90;;;;;;4885283;29;20627;-67
2021/06/12 01:23:53;;;;;;;;;;;15.70;99.90;;;;;;4890644;29;19932;-68
2021/06/12 01:26:31;;;;;;;;;;;15.60;99.90;;;;;;4890544;29;19928;-67
2021/06/12 01:31:58;;;;;;;;;;;15.50;99.90;;;;;;4885602;29;20421;-67
2021/06/12 01:34:29;;;;;;;;;;;15.50;99.90;;;;;;4878544;29;19931;-67
2021/06/12 01:37:00;;;;;;;;;;;15.50;99.90;;;;;;4897808;29;19931;-66
2021/06/12 01:39:32;;;;;;;;;;;15.40;99.90;;;;;;4889101;29;20315;-66
2021/06/12 01:42:02;;;;;;;;;;;15.40;99.90;;;;;;4897831;29;19983;-66
2021/06/12 01:44:32;;;;;;;;;;;15.40;99.90;;;;;;4890665;29;20289;-67
2021/06/12 01:49:53;;;;;;;;;;;15.30;99.90;;;;;;4894413;29;20023;-69
2021/06/12 01:52:22;;;;;;;;;;;15.30;99.90;;;;;;4891421;29;19934;-68
2021/06/12 01:54:50;;;;;;;;;;;15.30;99.90;;;;;;4894934;29;19931;-67
2021/06/12 01:57:19;;;;;;;;;;;15.30;99.90;;;;;;4896553;29;19951;-66
2021/06/12 01:59:48;;;;;;;;;;;15.30;99.90;;;;;;4897733;29;19927;-67
2021/06/12 02:02:18;;;;;;;;;;;15.20;99.90;;;;;;4885520;29;20014;-67
2021/06/12 02:04:47;;;;;;;;;;;15.20;99.90;;;;;;4896776;29;19935;-67
2021/06/12 02:07:15;;;;;;;;;;;15.20;99.90;;;;;;4893749;29;19939;-67
2021/06/12 02:09:45;;;;;;;;;;;15.20;99.90;;;;;;4891884;29;20262;-67
2021/06/12 02:12:14;;;;;;;;;;;15.20;99.90;;;;;;4898711;29;20341;-66
2021/06/12 02:14:42;;;;;;;;;;;15.20;99.90;;;;;;4887203;29;19928;-66
2021/06/12 02:17:10;;;;;;;;;;;15.10;99.90;;;;;;4889868;29;19931;-67
2021/06/12 02:19:41;;;;;;;;;;;15.10;99.90;;;;;;4896243;29;19935;-68
2021/06/12 02:22:09;;;;;;;;;;;15.10;99.90;;;;;;4896412;29;19999;-66
2021/06/12 02:24:36;;;;;;;;;;;15.10;99.90;;;;;;4886279;29;20934;-67
2021/06/12 02:27:07;;;;;;;;;;;15.10;99.90;;;;;;4904294;29;19938;-66
2021/06/12 02:29:35;;;;;;;;;;;15.00;99.90;;;;;;4893763;29;19966;-67
2021/06/12 02:32:06;;;;;;;;;;;15.00;99.90;;;;;;4888211;29;20349;-66
2021/06/12 02:34:34;;;;;;;;;;;15.00;99.90;;;;;;4891405;29;20337;-67
2021/06/12 02:37:04;;;;;;;;;;;15.10;99.90;;;;;;4881600;29;19932;-67
2021/06/12 02:39:57;;;;;;;;;;;15.00;99.90;;;;;;4893549;29;19936;-67
2021/06/12 02:42:25;;;;;;;;;;;15.10;99.90;;;;;;4893619;29;19941;-67
2021/06/12 02:44:53;;;;;;;;;;;15.00;99.90;;;;;;4889514;29;19982;-66
2021/06/12 02:47:21;;;;;;;;;;;15.00;99.90;;;;;;4889063;29;20364;-67
2021/06/12 02:49:50;;;;;;;;;;;15.00;99.90;;;;;;4888944;29;20394;-66
2021/06/12 02:52:24;;;;;;;;;;;14.90;99.90;;;;;;4886720;29;20027;-66
2021/06/12 02:54:52;;;;;;;;;;;14.90;99.90;;;;;;4887286;29;19955;-67
2021/06/12 02:57:20;;;;;;;;;;;14.90;99.90;;;;;;4890941;29;20014;-67
2021/06/12 02:59:49;;;;;;;;;;;14.80;99.90;;;;;;4890188;29;19927;-66
2021/06/12 03:02:19;;;;;;;;;;;14.80;99.90;;;;;;4879086;29;19931;-66
2021/06/12 03:04:48;;;;;;;;;;;14.80;99.90;;;;;;4891203;29;19974;-67
2021/06/12 03:07:16;;;;;;;;;;;14.80;99.90;;;;;;4893603;29;19935;-67
2021/06/12 03:09:46;;;;;;;;;;;14.80;99.90;;;;;;4894090;29;19942;-69
2021/06/12 03:12:14;;;;;;;;;;;14.80;99.90;;;;;;4892106;29;19928;-67
2021/06/12 03:14:42;;;;;;;;;;;14.80;99.90;;;;;;4891505;29;20301;-66
2021/06/12 03:17:10;;;;;;;;;;;14.80;99.90;;;;;;4868099;29;19942;-69
2021/06/12 03:19:39;;;;;;;;;;;14.80;99.90;;;;;;4881366;29;20392;-68
2021/06/12 03:22:07;;;;;;;;;;;14.80;99.90;;;;;;4877988;29;19928;-67
2021/06/12 03:24:35;;;;;;;;;;;14.70;99.90;;;;;;4890628;29;19928;-66
2021/06/12 03:27:05;;;;;;;;;;;14.80;99.90;;;;;;4893470;29;19927;-65
2021/06/12 03:29:34;;;;;;;;;;;14.80;99.90;;;;;;4891666;29;20042;-67
2021/06/12 03:32:02;;;;;;;;;;;14.80;99.90;;;;;;4885669;29;19963;-67
2021/06/12 03:34:30;;;;;;;;;;;14.80;99.90;;;;;;4891358;29;20014;-66
2021/06/12 03:36:59;;;;;;;;;;;14.80;99.90;;;;;;4892685;29;20332;-67
2021/06/12 03:39:27;;;;;;;;;;;14.80;99.90;;;;;;4890576;29;19927;-67
2021/06/12 03:41:55;;;;;;;;;;;14.80;99.90;;;;;;4894167;29;19942;-66
2021/06/12 03:44:27;;;;;;;;;;;14.80;99.90;;;;;;4889324;29;20359;-67
2021/06/12 03:46:55;;;;;;;;;;;14.80;99.90;;;;;;4887647;29;19991;-67
2021/06/12 03:49:23;;;;;;;;;;;14.80;99.90;;;;;;4894897;29;19928;-66
2021/06/12 03:51:54;;;;;;;;;;;14.80;99.90;;;;;;4885279;29;19950;-67
2021/06/12 03:54:22;;;;;;;;;;;14.90;99.90;;;;;;4886646;29;19950;-66
2021/06/12 03:56:51;;;;;;;;;;;14.80;99.90;;;;;;4888893;29;20019;-66
2021/06/12 03:59:19;;;;;;;;;;;14.90;99.90;;;;;;4897827;29;20391;-66
2021/06/12 04:01:49;;;;;;;;;;;14.90;99.90;;;;;;4881883;29;19969;-67
2021/06/12 04:04:17;;;;;;;;;;;14.90;99.90;;;;;;4890707;29;20316;-68
2021/06/12 04:06:44;;;;;;;;;;;14.90;99.90;;;;;;4896770;29;19927;-67
2021/06/12 04:09:12;;;;;;;;;;;15.00;99.90;;;;;;4895184;29;19928;-71
2021/06/12 04:11:39;;;;;;;;;;;15.00;99.90;;;;;;4890003;29;19934;-67
2021/06/12 04:14:07;;;;;;;;;;;15.10;99.90;;;;;;4894378;29;19935;-66
2021/06/12 04:16:36;;;;;;;;;;;15.20;99.90;;;;;;4881004;29;19928;-67
2021/06/12 04:19:30;;;;;;;;;;;15.30;99.90;;;;;;4887001;29;19928;-67
2021/06/12 04:21:58;;;;;;;;;;;15.40;99.90;;;;;;4895757;29;19927;-67
2021/06/12 04:24:25;;;;;;;;;;;15.40;99.90;;;;;;4889906;29;20007;-67
2021/06/12 04:26:53;;;;;;;;;;;15.50;99.90;;;;;;4888938;29;19944;-67
2021/06/12 04:32:14;;;;;;;;;;;15.60;99.90;;;;;;4884155;29;19928;-66
2021/06/12 04:34:44;;;;;;;;;;;15.70;99.90;;;;;;4895654;29;19928;-67
2021/06/12 04:37:12;;;;;;;;;;;15.70;99.90;;;;;;4891283;29;19934;-66
2021/06/12 04:39:39;;;;;;;;;;;15.80;99.90;;;;;;4894219;29;20348;-67
2021/06/12 04:42:08;;;;;;;;;;;15.90;99.90;;;;;;4892509;29;20336;-69
2021/06/12 04:44:35;;;;;;;;;;;16.00;99.90;;;;;;4884910;29;19936;-65
2021/06/12 04:47:28;;;;;;;;;;;16.20;99.90;;;;;;4881641;29;19935;-67
2021/06/12 04:49:58;;;;;;;;;;;16.20;99.90;;;;;;4887396;29;20234;-66
2021/06/12 04:52:27;;;;;;;;;;;16.40;99.90;;;;;;4893829;29;20044;-68
2021/06/12 04:54:55;;;;;;;;;;;16.50;99.90;;;;;;4846362;29;912155;-68
2021/06/12 04:57:23;;;;;;;;;;;16.60;99.90;;;;;;4886493;29;20037;-66
2021/06/12 04:59:51;;;;;;;;;;;16.80;99.90;;;;;;4889575;29;20533;-65
2021/06/12 05:02:19;;;;;;;;;;;16.90;99.90;;;;;;4882046;29;20300;-66
2021/06/12 05:04:47;;;;;;;;;;;17.00;99.90;;;;;;4893180;29;19927;-67
2021/06/12 05:07:17;;;;;;;;;;;17.10;99.90;;;;;;4878096;29;19934;-69
2021/06/12 05:09:45;;;;;;;;;;;17.30;99.90;;;;;;4888326;29;19927;-67
2021/06/12 05:12:13;;;;;;;;;;;17.40;99.90;;;;;;4889035;29;19928;-67
2021/06/12 05:14:43;;;;;;;;;;;17.60;99.90;;;;;;4884972;29;19935;-68
2021/06/12 05:17:14;;;;;;;;;;;17.70;99.90;;;;;;4875441;29;19935;-67
2021/06/12 05:19:42;;;;;;;;;;;17.90;99.90;;;;;;4885307;29;19928;-67
2021/06/12 05:22:09;;;;;;;;;;;18.00;99.90;;;;;;4888623;29;20228;-67
2021/06/12 05:24:38;;;;;;;;;;;18.10;99.90;;;;;;4887345;29;19938;-67
2021/06/12 05:27:08;;;;;;;;;;;18.20;99.90;;;;;;4886559;29;19932;-68
2021/06/12 05:29:36;;;;;;;;;;;18.40;99.90;;;;;;4890702;29;20029;-69
2021/06/12 05:32:05;;;;;;;;;;;18.40;99.90;;;;;;4877788;29;19928;-65
2021/06/12 05:34:33;;;;;;;;;;;18.60;99.90;;;;;;4891432;29;19927;-66
2021/06/12 05:37:01;;;;;;;;;;;19.00;99.90;;;;;;4889692;29;19928;-68
2021/06/12 05:39:33;;;;;;;;;;;18.80;99.90;;;;;;4891890;29;19947;-66
2021/06/12 05:42:02;;;;;;;;;;;19.00;99.90;;;;;;4888425;29;19935;-65
2021/06/12 05:44:30;;;;;;;;;;;19.30;99.90;;;;;;4888925;29;20388;-65
2021/06/12 05:46:58;;;;;;;;;;;20.00;99.90;;;;;;4882667;29;19927;-65
2021/06/12 05:49:26;;;;;;;;;;;20.80;99.90;;;;;;4895260;29;19959;-65
2021/06/12 05:52:19;;;;;;;;;;;20.90;99.90;;;;;;4892631;29;19928;-66
2021/06/12 05:54:47;;;;;;;;;;;21.30;99.90;;;;;;4889281;29;19963;-65
2021/06/12 05:57:16;;;;;;;;;;;21.20;99.90;;;;;;4893079;29;19983;-66
2021/06/12 05:59:44;;;;;;;;;;;20.90;99.90;;;;;;4892091;29;20394;-66
2021/06/12 06:02:12;;;;;;;;;;;21.20;99.90;;;;;;4885616;29;19936;-66
2021/06/12 06:04:41;;;;;;;;;;;21.70;99.90;;;;;;4891259;29;19975;-67
2021/06/12 06:07:09;;;;;;;;;;;21.20;99.90;;;;;;4889544;29;19928;-66
2021/06/12 06:09:37;;;;;;;;;;;21.20;99.90;;;;;;4890272;29;19959;-67
2021/06/12 06:12:05;;;;;;;;;;;21.50;99.90;;;;;;4897768;29;20443;-67
2021/06/12 06:14:34;;;;;;;;;;;21.90;99.90;;;;;;4902264;29;19928;-66
2021/06/12 06:17:02;;;;;;;;;;;22.40;99.90;;;;;;4895928;29;19927;-65
2021/06/12 06:19:30;;;;;;;;;;;22.50;99.90;;;;;;4902523;29;20288;-66
2021/06/12 06:21:58;;;;;;;;;;;22.50;99.90;;;;;;4901643;29;19928;-66
2021/06/12 06:24:30;;;;;;;;;;;22.40;99.90;;;;;;4896688;29;20418;-66
2021/06/12 06:26:57;;;;;;;;;;;23.00;99.90;;;;;;4894778;29;20026;-67
2021/06/12 06:29:51;;;;;;;;;;;23.20;99.90;;;;;;4899271;29;20380;-66
2021/06/12 06:32:20;;;;;;;;;;;22.60;99.90;;;;;;4879545;29;19966;-66
2021/06/12 06:34:49;;;;;;;;;;;22.40;99.90;;;;;;4898588;29;19927;-67
2021/06/12 06:37:16;;;;;;;;;;;22.50;99.90;;;;;;4898702;29;19927;-64
2021/06/12 06:39:45;;;;;;;;;;;22.30;99.90;;;;;;4901320;29;19928;-65
2021/06/12 06:42:13;;;;;;;;;;;22.30;99.90;;;;;;4895372;29;19927;-64
2021/06/12 06:44:40;;;;;;;;;;;22.60;99.90;;;;;;4882064;29;19983;-65
2021/06/12 06:47:12;;;;;;;;;;;22.40;99.90;;;;;;4887956;29;19952;-66
2021/06/12 06:50:04;;;;;;;;;;;22.70;99.90;;;;;;4894297;29;19955;-64
2021/06/12 06:52:34;;;;;;;;;;;23.70;99.90;;;;;;4900133;29;20403;-65
2021/06/12 06:55:02;;;;;;;;;;;23.50;99.90;;;;;;4896736;29;19995;-65
2021/06/12 06:57:30;;;;;;;;;;;24.00;99.90;;;;;;4899921;29;19927;-65
2021/06/12 06:59:58;;;;;;;;;;;24.40;99.90;;;;;;4892074;29;19995;-64
2021/06/12 07:02:26;;;;;;;;;;;25.30;99.90;;;;;;4899065;29;20026;-65
2021/06/12 07:04:54;;;;;;;;;;;27.20;98.10;;;;;;4890895;29;20205;-66
2021/06/12 07:07:22;;;;;;;;;;;29.10;93.50;;;;;;4880542;29;19946;-64
2021/06/12 07:09:52;;;;;;;;;;;30.80;85.60;;;;;;4895144;29;19931;-63
2021/06/12 07:12:19;;;;;;;;;;;32.60;78.90;;;;;;4898432;29;19928;-64
2021/06/12 07:14:47;;;;;;;;;;;33.60;73.20;;;;;;4891928;29;19932;-65
2021/06/12 07:17:15;;;;;;;;;;;33.80;69.90;;;;;;4891795;29;19963;-64
2021/06/12 07:19:43;;;;;;;;;;;30.70;74.80;;;;;;4895925;29;20022;-65
2021/06/12 07:22:11;;;;;;;;;;;27.80;86.00;;;;;;4898939;29;20372;-64
2021/06/12 07:24:39;;;;;;;;;;;26.10;92.30;;;;;;4893386;29;20030;-65
2021/06/12 07:27:09;;;;;;;;;;;25.50;95.80;;;;;;4898487;29;19953;-65
2021/06/12 07:30:02;;;;;;;;;;;27.20;93.60;;;;;;4897447;29;20362;-65
2021/06/12 07:32:30;;;;;;;;;;;29.50;90.30;;;;;;4896148;29;19935;-66
2021/06/12 07:35:21;;;;;;;;;;;30.50;83.70;;;;;;4892579;29;20314;-63
2021/06/12 07:37:49;;;;;;;;;;;28.20;89.00;;;;;;4896788;29;20312;-65
2021/06/12 07:40:19;;;;;;;;;;;28.30;90.80;;;;;;4860043;29;19927;-65
2021/06/12 07:42:48;;;;;;;;;;;29.10;89.20;;;;;;4894493;29;20040;-65
2021/06/12 07:45:16;;;;;;;;;;;28.20;89.30;;;;;;4886540;29;19983;-64
2021/06/12 07:47:45;;;;;;;;;;;29.30;88.20;;;;;;4896674;29;19934;-64
2021/06/12 07:50:13;;;;;;;;;;;30.00;87.00;;;;;;4895248;29;19932;-66
2021/06/12 07:52:41;;;;;;;;;;;30.10;85.10;;;;;;4891660;29;20027;-66
2021/06/12 07:55:09;;;;;;;;;;;29.00;87.10;;;;;;4893888;29;20308;-65
2021/06/12 07:57:37;;;;;;;;;;;29.30;87.80;;;;;;4891406;29;19937;-65
2021/06/12 08:00:08;;;;;;;;;;;29.40;88.10;;;;;;4872418;29;19928;-65
2021/06/12 08:02:44;;;;;;;;;;;31.80;81.00;;;;;;4886292;29;19927;-66
2021/06/12 08:05:12;;;;;;;;;;;33.20;73.80;;;;;;4895600;29;19942;-66
2021/06/12 08:07:40;;;;;;;;;;;32.50;75.10;;;;;;4891984;29;19939;-67
2021/06/12 08:10:08;;;;;;;;;;;32.10;75.40;;;;;;4893476;29;19936;-73
2021/06/12 08:12:36;;;;;;;;;;;31.90;76.60;;;;;;4889653;29;19927;-66
2021/06/12 08:15:04;;;;;;;;;;;33.00;73.40;;;;;;4890803;29;19934;-65
2021/06/12 08:17:33;;;;;;;;;;;34.70;67.50;;;;;;4897081;29;19935;-66
2021/06/12 08:20:01;;;;;;;;;;;36.20;61.60;;;;;;4894654;29;20360;-66
2021/06/12 08:22:29;;;;;;;;;;;36.60;59.00;;;;;;4890979;29;19967;-66
2021/06/12 08:24:56;;;;;;;;;;;37.20;55.90;;;;;;4895213;29;19983;-65
2021/06/12 08:27:24;;;;;;;;;;;38.10;52.70;;;;;;4895247;29;19935;-63
2021/06/12 08:29:52;;;;;;;;;;;39.10;49.10;;;;;;4893049;29;20460;-65
2021/06/12 08:32:20;;;;;;;;;;;38.50;49.00;;;;;;4871044;29;20376;-65
2021/06/12 08:34:49;;;;;;;;;;;38.10;49.40;;;;;;4894307;29;19941;-64
2021/06/12 08:37:17;;;;;;;;;;;37.10;51.70;;;;;;4891972;29;19927;-67
2021/06/12 08:39:45;;;;;;;;;;;36.50;52.60;;;;;;4894452;29;20291;-67
2021/06/12 08:42:15;;;;;;;;;;;34.70;55.60;;;;;;4893048;29;19954;-66
2021/06/12 08:44:52;;;;;;;;;;;34.20;57.20;;;;;;4891890;29;20022;-65
2021/06/12 08:47:20;;;;;;;;;;;34.60;55.20;;;;;;4879323;29;19955;-67
2021/06/12 08:49:49;;;;;;;;;;;33.90;56.20;;;;;;4894337;29;19955;-68
2021/06/12 08:52:16;;;;;;;;;;;33.80;56.00;;;;;;4894575;29;19935;-68
2021/06/12 08:54:45;;;;;;;;;;;33.20;57.50;;;;;;4892272;29;19935;-68
2021/06/12 08:57:13;;;;;;;;;;;34.30;55.60;;;;;;4895007;29;19961;-67
2021/06/12 08:59:40;;;;;;;;;;;36.10;53.10;;;;;;4900486;29;19927;-67
2021/06/12 09:02:08;;;;;;;;;;;37.90;50.30;;;;;;4888152;29;20018;-66
2021/06/12 09:04:42;;;;;;;;;;;37.90;47.80;;;;;;4892776;29;19928;-67
2021/06/12 09:07:20;;;;;;;;;;;38.40;46.00;;;;;;4888199;29;19935;-67
2021/06/12 09:09:48;;;;;;;;;;;38.90;45.70;;;;;;4890624;29;19935;-66
2021/06/12 09:12:48;;;;;;;;;;;39.90;44.80;;;;;;4894046;29;19939;-67
2021/06/12 09:15:36;;;;;;;;;;;39.00;42.70;;;;;;4887431;29;19927;-74
2021/06/12 09:18:38;;;;;;;;;;;37.30;45.50;;;;;;4895761;29;19935;-76
2021/06/12 09:21:29;;;;;;;;;;;37.10;44.40;;;;;;4877159;29;20672;-72
2021/06/12 09:24:24;;;;;;;;;;;37.60;44.00;;;;;;4893366;29;19994;-72
2021/06/12 09:27:13;;;;;;;;;;;37.80;43.60;;;;;;4895239;29;19954;-71
2021/06/12 09:30:02;;;;;;;;;;;36.60;46.00;;;;;;4894999;29;20441;-72
2021/06/12 09:32:55;;;;;;;;;;;36.60;46.20;;;;;;4890483;29;20359;-72
2021/06/12 09:35:44;;;;;;;;;;;36.00;47.30;;;;;;4895320;29;19927;-75
2021/06/12 09:38:32;;;;;;;;;;;34.20;50.10;;;;;;4897890;29;19927;-73
2021/06/12 09:41:23;;;;;;;;;;;33.20;52.00;;;;;;4897389;29;19931;-72
2021/06/12 09:44:13;;;;;;;;;;;32.20;54.30;;;;;;4900411;29;20407;-73
2021/06/12 09:50:18;;;;;;;;;;;31.50;57.90;;;;;;4899981;29;19928;-72
2021/06/12 09:53:11;;;;;;;;;;;30.30;59.40;;;;;;4897462;29;19931;-71
2021/06/12 09:56:09;;;;;;;;;;;29.60;62.60;;;;;;4898736;29;19938;-74
2021/06/12 09:59:00;;;;;;;;;;;29.90;62.70;;;;;;4895609;29;20355;-75
2021/06/12 10:01:51;;;;;;;;;;;30.40;61.20;;;;;;4884150;29;19928;-76
2021/06/12 10:04:56;;;;;;;;;;;30.20;61.90;;;;;;4894574;29;20025;-72
2021/06/12 10:07:44;;;;;;;;;;;29.90;61.60;;;;;;4900854;29;19931;-77
2021/06/12 10:10:33;;;;;;;;;;;29.50;62.80;;;;;;4885761;29;20422;-72
2021/06/12 10:13:22;;;;;;;;;;;29.40;64.60;;;;;;4902000;29;19938;-73
2021/06/12 10:16:12;;;;;;;;;;;29.50;65.10;;;;;;4894605;29;19950;-73
2021/06/12 10:19:04;;;;;;;;;;;29.50;64.20;;;;;;4899076;29;19927;-72
2021/06/12 10:21:53;;;;;;;;;;;29.30;66.00;;;;;;4900038;29;19927;-72
2021/06/12 10:24:42;;;;;;;;;;;29.50;65.80;;;;;;4900107;29;19951;-72
2021/06/12 10:27:30;;;;;;;;;;;30.90;63.30;;;;;;4887703;29;20389;-72
2021/06/12 10:30:19;;;;;;;;;;;31.30;62.40;;;;;;4875232;29;20296;-72
2021/06/12 10:33:09;;;;;;;;;;;30.60;63.00;;;;;;4899001;29;19928;-72
2021/06/12 10:36:09;;;;;;;;;;;29.60;65.20;;;;;;4887333;29;19931;-73
2021/06/12 10:38:57;;;;;;;;;;;28.60;67.10;;;;;;4888058;29;20018;-71
2021/06/12 10:42:11;;;;;;;;;;;28.20;69.70;;;;;;4900679;29;19932;-75
2021/06/12 10:45:11;;;;;;;;;;;28.40;70.60;;;;;;4901253;29;19943;-73
2021/06/12 10:47:59;;;;;;;;;;;28.70;69.70;;;;;;4902757;29;19939;-74
2021/06/12 10:50:49;;;;;;;;;;;28.30;70.70;;;;;;4894113;29;19989;-75
2021/06/12 10:53:48;;;;;;;;;;;28.30;71.40;;;;;;4865307;29;19935;-72
2021/06/12 10:56:38;;;;;;;;;;;28.20;71.70;;;;;;4899944;29;19931;-72
2021/06/12 10:59:47;;;;;;;;;;;28.30;71.90;;;;;;4899805;29;19939;-70
2021/06/12 11:02:53;;;;;;;;;;;28.70;70.10;;;;;;4893649;29;20018;-68
2021/06/12 11:05:43;;;;;;;;;;;29.40;69.20;;;;;;4899501;29;20012;-70
2021/06/12 11:08:32;;;;;;;;;;;29.60;70.10;;;;;;4898709;29;19938;-70
2021/06/12 11:11:33;;;;;;;;;;;28.80;70.40;;;;;;4882217;29;20279;-70
2021/06/12 11:14:29;;;;;;;;;;;28.80;70.70;;;;;;4890177;29;20011;-69
2021/06/12 11:17:18;;;;;;;;;;;28.20;73.40;;;;;;4890600;29;19931;-69
2021/06/12 11:20:26;;;;;;;;;;;28.30;73.80;;;;;;4898892;29;19951;-69
2021/06/12 11:23:16;;;;;;;;;;;27.80;74.50;;;;;;4898890;29;19927;-68
2021/06/12 11:26:06;;;;;;;;;;;27.30;76.50;;;;;;4899009;29;19927;-68
2021/06/12 11:29:14;;;;;;;;;;;27.40;77.70;;;;;;4885122;29;20041;-71
2021/06/12 11:32:26;;;;;;;;;;;27.40;77.90;;;;;;4894627;29;19927;-69
2021/06/12 11:35:29;;;;;;;;;;;27.00;77.80;;;;;;4897652;29;19931;-67
2021/06/12 11:38:18;;;;;;;;;;;26.80;78.40;;;;;;4900868;29;20315;-69
2021/06/12 11:41:10;;;;;;;;;;;27.00;80.60;;;;;;4900379;29;19946;-68
2021/06/12 11:44:00;;;;;;;;;;;27.40;79.80;;;;;;4899932;29;20319;-69
2021/06/12 11:46:48;;;;;;;;;;;27.20;79.20;;;;;;4894011;29;19978;-67
2021/06/12 11:49:47;;;;;;;;;;;27.50;77.90;;;;;;4908970;29;19975;-68
2021/06/12 11:52:36;;;;;;;;;;;27.40;77.00;;;;;;4903177;29;19928;-70
2021/06/12 11:55:30;;;;;;;;;;;27.50;77.60;;;;;;4885254;29;19927;-71
2021/06/12 11:58:19;;;;;;;;;;;27.80;78.30;;;;;;4902449;29;19928;-67
2021/06/12 12:01:08;;;;;;;;;;;27.90;76.00;;;;;;4896497;29;19957;-66
2021/06/12 12:04:03;;;;;;;;;;;27.80;76.80;;;;;;4901656;29;19931;-67
2021/06/12 12:10:08;;;;;;;;;;;28.10;76.50;;;;;;4899320;29;19994;-66
2021/06/12 12:12:57;;;;;;;;;;;27.90;77.00;;;;;;4881585;29;20411;-67
2021/06/12 12:15:47;;;;;;;;;;;28.00;77.80;;;;;;4895155;29;19927;-66
2021/06/12 12:18:45;;;;;;;;;;;28.00;77.40;;;;;;4896947;29;19935;-67
2021/06/12 12:21:35;;;;;;;;;;;28.10;76.40;;;;;;4899667;29;19927;-66
2021/06/12 12:24:28;;;;;;;;;;;27.70;76.40;;;;;;4901327;29;19931;-68
2021/06/12 12:27:20;;;;;;;;;;;27.90;77.80;;;;;;4900974;29;19932;-67
2021/06/12 12:30:09;;;;;;;;;;;28.20;78.10;;;;;;4881423;29;19927;-66
2021/06/12 12:33:09;;;;;;;;;;;28.40;76.80;;;;;;4897712;29;20339;-68
2021/06/12 12:36:01;;;;;;;;;;;28.70;75.20;;;;;;4898686;29;19939;-69
2021/06/12 12:38:56;;;;;;;;;;;28.50;74.10;;;;;;4898631;29;19935;-65
2021/06/12 12:41:51;;;;;;;;;;;28.30;75.10;;;;;;4894467;29;19995;-66
2021/06/12 12:44:41;;;;;;;;;;;28.10;76.60;;;;;;4891618;29;20262;-66
2021/06/12 12:47:30;;;;;;;;;;;28.00;76.60;;;;;;4896269;29;19931;-66
2021/06/12 12:50:19;;;;;;;;;;;27.80;76.90;;;;;;4898350;29;20431;-64
2021/06/12 12:53:09;;;;;;;;;;;27.70;78.00;;;;;;4892617;29;19931;-63
2021/06/12 12:55:58;;;;;;;;;;;27.40;79.00;;;;;;4894824;29;19927;-70
2021/06/12 12:58:50;;;;;;;;;;;27.10;80.20;;;;;;4892690;29;20557;-68
2021/06/12 13:01:38;;;;;;;;;;;27.20;80.30;;;;;;4883228;29;19970;-71
2021/06/12 13:04:30;;;;;;;;;;;27.10;81.10;;;;;;4898007;29;19927;-69
2021/06/12 13:07:23;;;;;;;;;;;27.00;81.80;;;;;;4882571;29;20300;-73
2021/06/12 13:10:14;;;;;;;;;;;27.20;82.20;;;;;;4899016;29;19927;-68
2021/06/12 13:13:04;;;;;;;;;;;27.20;78.50;;;;;;4898527;29;19931;-69
2021/06/12 13:15:56;;;;;;;;;;;27.10;79.20;;;;;;4894849;29;19927;-69
2021/06/12 13:18:44;;;;;;;;;;;26.80;80.60;;;;;;4903126;29;19931;-68
2021/06/12 13:21:33;;;;;;;;;;;27.00;81.50;;;;;;4903636;29;19931;-68
2021/06/12 13:24:22;;;;;;;;;;;26.90;80.10;;;;;;4900738;29;19931;-68
2021/06/12 13:27:11;;;;;;;;;;;27.10;80.50;;;;;;4900292;29;19936;-74
2021/06/12 13:30:02;;;;;;;;;;;27.40;79.30;;;;;;4900549;29;19932;-69
2021/06/12 13:32:54;;;;;;;;;;;27.40;79.70;;;;;;4884142;29;20019;-69
2021/06/12 13:35:44;;;;;;;;;;;27.60;80.00;;;;;;4903762;29;19991;-69
2021/06/12 13:38:33;;;;;;;;;;;27.90;80.10;;;;;;4902704;29;19999;-68
2021/06/12 13:41:23;;;;;;;;;;;27.70;79.70;;;;;;4893999;29;20291;-69
2021/06/12 13:44:11;;;;;;;;;;;27.40;81.80;;;;;;4897312;29;20296;-69
2021/06/12 13:47:00;;;;;;;;;;;27.40;82.40;;;;;;4896488;29;19927;-69
2021/06/12 13:50:14;;;;;;;;;;;27.40;81.80;;;;;;4897004;29;19990;-68
2021/06/12 13:53:03;;;;;;;;;;;27.10;81.00;;;;;;4894584;29;19927;-68
2021/06/12 13:55:51;;;;;;;;;;;27.10;81.00;;;;;;4903257;29;19935;-67
2021/06/12 13:58:41;;;;;;;;;;;27.60;79.20;;;;;;4896873;29;19928;-68
2021/06/12 14:01:29;;;;;;;;;;;27.80;74.80;;;;;;4896548;29;19931;-67
2021/06/12 14:04:18;;;;;;;;;;;27.80;76.60;;;;;;4902095;29;20014;-68
2021/06/12 14:07:07;;;;;;;;;;;27.90;77.10;;;;;;4902754;29;19979;-70
2021/06/12 14:10:44;;;;;;;;;;;28.00;76.70;;;;;;4902485;29;19927;-68
2021/06/12 14:13:32;;;;;;;;;;;27.70;76.50;;;;;;4894495;29;20335;-69
2021/06/12 14:16:22;;;;;;;;;;;27.70;76.30;;;;;;4897012;29;19995;-67
2021/06/12 14:19:10;;;;;;;;;;;27.70;75.80;;;;;;4896276;29;19936;-68
2021/06/12 14:21:58;;;;;;;;;;;28.00;75.50;;;;;;4898507;29;20028;-68
2021/06/12 14:24:47;;;;;;;;;;;28.10;74.20;;;;;;4900963;29;20265;-68
2021/06/12 14:27:35;;;;;;;;;;;27.80;74.00;;;;;;4897852;29;19927;-68
2021/06/12 14:30:23;;;;;;;;;;;27.80;74.80;;;;;;4895849;29;20022;-73
2021/06/12 14:33:12;;;;;;;;;;;27.60;75.50;;;;;;4900557;29;19931;-70
2021/06/12 14:36:01;;;;;;;;;;;27.60;76.00;;;;;;4901504;29;19979;-67
2021/06/12 14:38:49;;;;;;;;;;;27.50;75.20;;;;;;4901343;29;20014;-71
2021/06/12 14:41:38;;;;;;;;;;;27.50;74.50;;;;;;4900969;29;20026;-68
2021/06/12 14:44:27;;;;;;;;;;;27.50;74.80;;;;;;4896518;29;20082;-68
2021/06/12 14:47:15;;;;;;;;;;;27.50;74.10;;;;;;4894150;29;19934;-68
2021/06/12 14:50:08;;;;;;;;;;;27.30;74.50;;;;;;4900059;29;19928;-69
2021/06/12 14:52:56;;;;;;;;;;;27.20;75.60;;;;;;4897188;29;20281;-68
2021/06/12 14:55:45;;;;;;;;;;;27.00;75.50;;;;;;4885829;29;20047;-64
2021/06/12 14:58:34;;;;;;;;;;;26.90;76.10;;;;;;4899172;29;19928;-68
2021/06/12 15:01:22;;;;;;;;;;;26.80;76.00;;;;;;4890429;29;20501;-68
2021/06/12 15:04:10;;;;;;;;;;;26.80;76.50;;;;;;4902945;29;20067;-67
2021/06/12 15:07:03;;;;;;;;;;;26.90;76.40;;;;;;4900329;29;19928;-70
2021/06/12 15:09:52;;;;;;;;;;;26.80;76.30;;;;;;4904143;29;19953;-68
2021/06/12 15:12:40;;;;;;;;;;;26.70;76.00;;;;;;4903550;29;19934;-65
2021/06/12 15:15:28;;;;;;;;;;;26.70;74.60;;;;;;4896025;29;19927;-71
2021/06/12 15:18:16;;;;;;;;;;;26.60;74.40;;;;;;4895578;29;19927;-65
2021/06/12 15:21:05;;;;;;;;;;;26.60;74.70;;;;;;4885262;29;19939;-67
2021/06/12 15:23:55;;;;;;;;;;;26.40;76.00;;;;;;4901814;29;20387;-67
2021/06/12 15:26:43;;;;;;;;;;;26.20;75.80;;;;;;4902081;29;19928;-66
2021/06/12 15:29:32;;;;;;;;;;;26.30;76.10;;;;;;4899277;29;20631;-67
2021/06/12 15:32:20;;;;;;;;;;;26.50;76.20;;;;;;4892984;29;20015;-66
2021/06/12 15:35:09;;;;;;;;;;;26.60;75.70;;;;;;4894442;29;19927;-67